createdAt,value
2023-02-13T00:02:23.054Z,5.95
2023-02-13T00:04:49.439Z,6.02
2023-02-13T00:07:15.808Z,6.02
2023-02-13T00:09:42.139Z,6.01
2023-02-13T00:12:09.555Z,5.98
2023-02-13T00:14:37.636Z,5.98
2023-02-13T00:17:04.603Z,5.95
2023-02-13T00:19:30.953Z,5.93
2023-02-13T00:21:57.338Z,5.93
2023-02-13T00:24:23.939Z,5.89
2023-02-13T00:26:50.423Z,5.91
2023-02-13T00:29:16.846Z,5.90
2023-02-13T00:31:43.526Z,5.89
2023-02-13T00:34:10.281Z,5.92
2023-02-13T00:36:36.773Z,5.90
2023-02-13T00:39:03.488Z,5.88
2023-02-13T00:41:30.480Z,5.94
2023-02-13T00:43:56.810Z,5.92
2023-02-13T00:46:23.301Z,5.90
2023-02-13T00:48:49.657Z,5.88
2023-02-13T00:51:16.053Z,5.88
2023-02-13T00:53:42.470Z,5.87
2023-02-13T00:56:08.850Z,5.89
2023-02-13T00:58:35.298Z,5.89
2023-02-13T01:01:01.770Z,5.84
2023-02-13T01:03:28.246Z,5.82
2023-02-13T01:05:57.166Z,5.83
2023-02-13T01:08:23.995Z,5.85
2023-02-13T01:10:50.834Z,5.85
2023-02-13T01:13:20.638Z,5.77
2023-02-13T01:15:48.135Z,5.79
2023-02-13T01:18:16.749Z,5.74
2023-02-13T01:20:46.438Z,5.72
2023-02-13T01:23:13.022Z,5.76
2023-02-13T01:25:41.523Z,5.75
2023-02-13T01:28:08.477Z,5.74
2023-02-13T01:30:35.120Z,5.74
2023-02-13T01:33:01.518Z,5.74
2023-02-13T01:35:27.902Z,5.71
2023-02-13T01:37:54.310Z,5.71
2023-02-13T01:40:20.843Z,5.72
2023-02-13T01:42:47.347Z,5.74
2023-02-13T01:45:27.750Z,5.71
2023-02-13T01:47:59.499Z,5.74
2023-02-13T01:50:33.350Z,5.72
2023-02-13T01:53:06.129Z,5.73
2023-02-13T01:55:35.738Z,5.69
2023-02-13T01:58:07.467Z,5.67
2023-02-13T02:00:35.509Z,5.65
2023-02-13T02:03:11.118Z,5.66
2023-02-13T02:05:38.734Z,5.67
2023-02-13T02:08:09.186Z,5.69
2023-02-13T02:10:36.220Z,5.67
2023-02-13T02:13:12.722Z,5.66
2023-02-13T02:15:41.078Z,5.62
2023-02-13T02:18:17.606Z,5.59
2023-02-13T02:21:08.698Z,5.57
2023-02-13T02:23:59.469Z,5.51
2023-02-13T02:26:44.744Z,5.53
2023-02-13T02:29:48.745Z,5.53
2023-02-13T02:32:35.606Z,5.53
2023-02-13T02:35:19.124Z,5.52
2023-02-13T02:38:22.074Z,5.52
2023-02-13T02:41:02.636Z,5.53
2023-02-13T02:44:00.224Z,5.57
2023-02-13T02:46:38.167Z,5.58
2023-02-13T02:49:32.004Z,5.59
2023-02-13T02:52:16.168Z,5.52
2023-02-13T02:55:09.188Z,5.54
2023-02-13T02:58:03.484Z,5.55
2023-02-13T03:00:52.458Z,5.56
2023-02-13T03:03:40.482Z,5.55
2023-02-13T03:06:16.963Z,5.59
2023-02-13T03:09:13.122Z,5.57
2023-02-13T03:12:00.929Z,5.53
2023-02-13T03:14:28.382Z,5.56
2023-02-13T03:17:16.576Z,5.54
2023-02-13T03:20:19.074Z,5.53
2023-02-13T03:23:00.309Z,5.50
2023-02-13T03:25:38.602Z,5.52
2023-02-13T03:28:38.968Z,5.50
2023-02-13T03:31:17.595Z,5.49
2023-02-13T03:33:57.589Z,5.49
2023-02-13T03:37:04.996Z,5.45
2023-02-13T03:39:55.507Z,5.47
2023-02-13T03:42:40.663Z,5.49
2023-02-13T03:45:32.981Z,5.51
2023-02-13T03:48:09.888Z,5.52
2023-02-13T03:50:43.718Z,5.51
2023-02-13T03:53:13.985Z,5.53
2023-02-13T03:56:04.511Z,5.53
2023-02-13T03:59:00.723Z,5.58
2023-02-13T04:01:31.159Z,5.59
2023-02-13T04:04:08.043Z,5.61
2023-02-13T04:06:40.581Z,5.58
2023-02-13T04:09:07.067Z,5.52
2023-02-13T04:11:40.604Z,5.52
2023-02-13T04:14:24.799Z,5.49
2023-02-13T04:17:04.851Z,5.54
2023-02-13T04:19:32.869Z,5.52
2023-02-13T04:22:01.553Z,5.50
2023-02-13T04:24:28.475Z,5.48
2023-02-13T04:26:56.034Z,5.53
2023-02-13T04:29:24.881Z,5.50
2023-02-13T04:31:51.699Z,5.47
2023-02-13T04:34:18.250Z,5.54
2023-02-13T04:36:44.596Z,5.56
2023-02-13T04:39:11.813Z,5.56
2023-02-13T04:41:38.163Z,5.48
2023-02-13T04:44:04.772Z,5.48
2023-02-13T04:46:31.123Z,5.49
2023-02-13T04:48:57.648Z,5.44
2023-02-13T04:51:23.996Z,5.44
2023-02-13T04:53:50.516Z,5.37
2023-02-13T04:56:18.506Z,5.37
2023-02-13T04:58:45.937Z,5.37
2023-02-13T05:01:16.315Z,5.40
2023-02-13T05:03:42.986Z,5.38
2023-02-13T05:06:09.619Z,5.35
2023-02-13T05:08:36.025Z,5.34
2023-02-13T05:11:02.397Z,5.36
2023-02-13T05:13:28.742Z,5.28
2023-02-13T05:15:55.135Z,5.31
2023-02-13T05:18:21.538Z,5.30
2023-02-13T05:21:08.045Z,5.32
2023-02-13T05:23:34.439Z,5.22
2023-02-13T05:26:01.022Z,5.18
2023-02-13T05:28:45.706Z,5.23
2023-02-13T05:31:12.531Z,5.26
2023-02-13T05:33:39.122Z,5.32
2023-02-13T05:36:06.000Z,5.30
2023-02-13T05:38:32.405Z,5.25
2023-02-13T05:41:00.589Z,5.15
2023-02-13T05:43:27.933Z,5.21
2023-02-13T05:46:05.846Z,5.23
2023-02-13T05:48:32.535Z,5.22
2023-02-13T05:50:59.240Z,5.22
2023-02-13T05:53:25.811Z,5.29
2023-02-13T05:55:52.412Z,5.35
2023-02-13T05:58:20.083Z,5.36
2023-02-13T06:00:46.810Z,5.35
2023-02-13T06:03:13.335Z,5.31
2023-02-13T06:05:40.065Z,5.27
2023-02-13T06:08:06.399Z,5.22
2023-02-13T06:10:32.786Z,5.22
2023-02-13T06:12:59.151Z,5.22
2023-02-13T06:15:25.731Z,5.28
2023-02-13T06:17:52.062Z,5.28
2023-02-13T06:20:18.622Z,5.22
2023-02-13T06:22:48.603Z,5.20
2023-02-13T06:25:15.221Z,5.17
2023-02-13T06:27:41.559Z,5.16
2023-02-13T06:30:08.498Z,5.19
2023-02-13T06:32:34.855Z,5.21
2023-02-13T06:35:01.979Z,5.20
2023-02-13T06:37:29.177Z,5.19
2023-02-13T06:39:55.556Z,5.22
2023-02-13T06:42:22.033Z,5.23
2023-02-13T06:44:48.543Z,5.24
2023-02-13T06:47:14.890Z,5.26
2023-02-13T06:49:41.288Z,5.26
2023-02-13T06:52:07.665Z,5.27
2023-02-13T06:54:46.792Z,5.24
2023-02-13T06:57:14.013Z,5.26
2023-02-13T06:59:40.341Z,5.25
2023-02-13T07:02:06.845Z,5.28
2023-02-13T07:04:33.202Z,5.23
2023-02-13T07:06:59.672Z,5.19
2023-02-13T07:09:26.093Z,5.23
2023-02-13T07:11:52.588Z,5.17
2023-02-13T07:14:18.928Z,5.20
2023-02-13T07:16:45.399Z,5.26
2023-02-13T07:19:11.760Z,5.31
2023-02-13T07:21:38.303Z,5.27
2023-02-13T07:24:07.760Z,5.26
2023-02-13T07:26:34.440Z,5.30
2023-02-13T07:29:11.190Z,5.35
2023-02-13T07:31:39.240Z,5.31
2023-02-13T07:34:05.807Z,5.34
2023-02-13T07:36:32.170Z,5.33
2023-02-13T07:38:58.530Z,5.32
2023-02-13T07:41:27.774Z,5.31
2023-02-13T07:43:54.526Z,5.30
2023-02-13T07:46:21.028Z,5.32
2023-02-13T07:48:47.491Z,5.32
2023-02-13T07:51:14.159Z,5.31
2023-02-13T07:53:40.536Z,5.35
2023-02-13T07:56:07.847Z,5.34
2023-02-13T07:58:34.696Z,5.40
2023-02-13T08:01:06.966Z,5.37
2023-02-13T08:03:33.392Z,5.32
2023-02-13T08:06:00.001Z,5.33
2023-02-13T08:08:26.711Z,5.33
2023-02-13T08:11:12.024Z,5.39
2023-02-13T08:13:38.896Z,5.41
2023-02-13T08:16:05.339Z,5.43
2023-02-13T08:18:31.767Z,5.43
2023-02-13T08:20:58.100Z,5.48
2023-02-13T08:23:24.625Z,5.51
2023-02-13T08:25:51.028Z,5.58
2023-02-13T08:28:17.721Z,5.56
2023-02-13T08:30:44.148Z,5.57
2023-02-13T08:33:10.617Z,5.63
2023-02-13T08:35:36.974Z,5.60
2023-02-13T08:38:04.819Z,5.65
2023-02-13T08:40:32.508Z,5.69
2023-02-13T08:43:03.584Z,5.63
2023-02-13T08:45:30.582Z,5.65
2023-02-13T08:48:00.532Z,5.70
2023-02-13T08:50:27.483Z,5.69
2023-02-13T08:52:54.191Z,5.70
2023-02-13T08:55:20.639Z,5.74
2023-02-13T08:57:47.047Z,5.78
2023-02-13T09:00:14.595Z,5.73
2023-02-13T09:02:41.003Z,5.62
2023-02-13T09:05:07.495Z,5.60
2023-02-13T09:07:33.854Z,5.63
2023-02-13T09:10:00.234Z,5.72
2023-02-13T09:12:26.635Z,5.74
2023-02-13T09:14:53.067Z,5.77
2023-02-13T09:17:19.686Z,5.74
2023-02-13T09:19:47.260Z,5.74
2023-02-13T09:22:13.604Z,5.74
2023-02-13T09:24:40.060Z,5.78
2023-02-13T09:27:07.910Z,5.77
2023-02-13T09:29:34.812Z,5.80
2023-02-13T09:32:01.232Z,5.77
2023-02-13T09:34:27.649Z,5.76
2023-02-13T09:36:54.472Z,5.76
2023-02-13T09:39:20.873Z,5.79
2023-02-13T09:41:49.883Z,5.80
2023-02-13T09:44:34.874Z,5.79
2023-02-13T09:47:16.576Z,5.77
2023-02-13T09:49:53.083Z,5.75
2023-02-13T09:52:19.835Z,5.71
2023-02-13T09:54:46.342Z,5.69
2023-02-13T09:57:20.469Z,5.66
2023-02-13T10:00:13.785Z,5.68
2023-02-13T10:02:58.627Z,5.67
2023-02-13T10:05:57.674Z,5.67
2023-02-13T10:08:51.409Z,5.67
2023-02-13T10:11:28.022Z,5.65
2023-02-13T10:13:57.507Z,5.70
2023-02-13T10:16:38.104Z,5.74
2023-02-13T10:19:20.379Z,5.75
2023-02-13T10:21:55.686Z,5.80
2023-02-13T10:25:01.333Z,5.86
2023-02-13T10:27:37.206Z,5.94
2023-02-13T10:30:14.200Z,5.92
2023-02-13T10:33:18.531Z,5.89
2023-02-13T10:36:10.049Z,5.91
2023-02-13T10:38:48.666Z,5.94
2023-02-13T10:41:25.095Z,5.97
2023-02-13T10:44:05.401Z,6.04
2023-02-13T10:46:46.612Z,6.01
2023-02-13T10:49:47.271Z,5.90
2023-02-13T10:52:34.906Z,5.92
2023-02-13T10:55:14.385Z,5.91
2023-02-13T10:58:06.773Z,6.01
2023-02-13T11:00:55.248Z,5.98
2023-02-13T11:03:27.278Z,6.00
2023-02-13T11:05:57.061Z,6.03
2023-02-13T11:08:35.101Z,6.06
2023-02-13T11:11:01.734Z,6.04
2023-02-13T11:13:30.489Z,6.09
2023-02-13T11:16:00.566Z,6.14
2023-02-13T11:18:30.593Z,6.19
2023-02-13T11:21:04.833Z,6.14
2023-02-13T11:23:31.115Z,6.05
2023-02-13T11:26:04.266Z,6.04
2023-02-13T11:28:34.106Z,6.08
2023-02-13T11:31:31.401Z,6.08
2023-02-13T11:33:59.739Z,6.12
2023-02-13T11:36:33.944Z,6.13
2023-02-13T11:39:18.318Z,6.06
2023-02-13T11:41:46.725Z,6.07
2023-02-13T11:44:28.260Z,6.09
2023-02-13T11:46:57.817Z,6.14
2023-02-13T11:49:26.602Z,6.12
2023-02-13T11:51:58.319Z,6.13
2023-02-13T11:54:35.532Z,6.09
2023-02-13T11:57:22.108Z,6.21
2023-02-13T11:59:52.022Z,6.23
2023-02-13T12:02:20.171Z,6.24
2023-02-13T12:04:49.166Z,6.15
2023-02-13T12:07:23.193Z,6.13
2023-02-13T12:10:17.317Z,6.12
2023-02-13T12:13:03.074Z,6.09
2023-02-13T12:15:35.064Z,6.13
2023-02-13T12:18:11.067Z,6.14
2023-02-13T12:20:50.829Z,6.19
2023-02-13T12:23:19.911Z,6.14
2023-02-13T12:25:53.908Z,6.23
2023-02-13T12:28:28.385Z,6.22
2023-02-13T12:31:02.441Z,6.22
2023-02-13T12:33:47.375Z,6.29
2023-02-13T12:36:21.014Z,6.35
2023-02-13T12:39:12.050Z,6.29
2023-02-13T12:42:00.169Z,6.32
2023-02-13T12:44:38.657Z,6.22
2023-02-13T12:47:21.951Z,6.15
2023-02-13T12:50:22.035Z,6.19
2023-02-13T12:53:29.547Z,6.28
2023-02-13T12:56:20.426Z,6.26
2023-02-13T12:59:14.750Z,6.33
2023-02-13T13:02:09.474Z,6.34
2023-02-13T13:04:46.291Z,6.35
2023-02-13T13:07:30.707Z,6.38
2023-02-13T13:10:16.764Z,6.38
2023-02-13T13:13:10.074Z,6.45
2023-02-13T13:15:43.636Z,6.35
2023-02-13T13:18:32.152Z,6.28
2023-02-13T13:21:09.305Z,6.27
2023-02-13T13:24:01.049Z,6.22
2023-02-13T13:26:37.130Z,6.22
2023-02-13T13:29:15.022Z,6.33
2023-02-13T13:31:45.207Z,6.41
2023-02-13T13:34:20.690Z,6.42
2023-02-13T13:36:54.415Z,6.42
2023-02-13T13:39:52.414Z,6.41
2023-02-13T13:42:35.145Z,6.41
2023-02-13T13:45:20.143Z,6.38
2023-02-13T13:47:57.525Z,6.38
2023-02-13T13:50:26.494Z,6.41
2023-02-13T13:53:19.373Z,6.40
2023-02-13T13:55:52.652Z,6.46
2023-02-13T13:58:23.757Z,6.51
2023-02-13T14:01:18.457Z,6.50
2023-02-13T14:03:59.847Z,6.54
2023-02-13T14:06:46.426Z,6.49
2023-02-13T14:09:27.728Z,6.48
2023-02-13T14:11:56.910Z,6.49
2023-02-13T14:14:29.097Z,6.46
2023-02-13T14:17:01.950Z,6.38
2023-02-13T14:19:39.952Z,6.32
2023-02-13T14:22:24.822Z,6.31
2023-02-13T14:24:55.352Z,6.32
2023-02-13T14:27:39.061Z,6.37
2023-02-13T14:30:22.043Z,6.36
2023-02-13T14:32:48.462Z,6.35
2023-02-13T14:35:29.932Z,6.33
2023-02-13T14:37:59.308Z,6.25
2023-02-13T14:40:30.766Z,6.29
2023-02-13T14:43:04.978Z,6.32
2023-02-13T14:45:34.925Z,6.27
2023-02-13T14:48:13.466Z,6.28
2023-02-13T14:50:52.497Z,6.22
2023-02-13T14:53:29.989Z,6.18
2023-02-13T14:56:03.081Z,6.26
2023-02-13T14:58:33.610Z,6.24
2023-02-13T15:01:11.252Z,6.22
2023-02-13T15:03:46.443Z,6.23
2023-02-13T15:06:22.465Z,6.19
2023-02-13T15:08:51.726Z,6.19
2023-02-13T15:11:53.758Z,6.24
2023-02-13T15:14:34.678Z,6.23
2023-02-13T15:17:16.204Z,6.23
2023-02-13T15:19:48.858Z,6.15
2023-02-13T15:22:30.581Z,6.05
2023-02-13T15:24:58.093Z,5.98
2023-02-13T15:27:30.278Z,5.95
2023-02-13T15:30:17.722Z,5.94
2023-02-13T15:32:44.403Z,6.01
2023-02-13T15:35:32.755Z,6.02
2023-02-13T15:38:00.563Z,5.95
2023-02-13T15:40:30.159Z,5.90
2023-02-13T15:42:57.550Z,5.83
2023-02-13T15:45:27.376Z,5.80
2023-02-13T15:47:56.215Z,5.77
2023-02-13T15:50:34.221Z,5.83
2023-02-13T15:53:03.598Z,5.77
2023-02-13T15:55:33.340Z,5.78
2023-02-13T15:58:01.631Z,5.74
2023-02-13T16:00:34.347Z,5.72
2023-02-13T16:03:03.914Z,5.74
2023-02-13T16:05:40.408Z,5.72
2023-02-13T16:08:38.531Z,5.73
2023-02-13T16:11:23.896Z,5.71
2023-02-13T16:14:13.303Z,5.71
2023-02-13T16:16:47.303Z,5.72
2023-02-13T16:19:52.041Z,5.71
2023-02-13T16:22:32.778Z,5.72
2023-02-13T16:25:14.246Z,5.70
2023-02-13T16:27:49.637Z,5.62
2023-02-13T16:30:23.233Z,5.58
2023-02-13T16:32:49.844Z,5.54
2023-02-13T16:35:31.158Z,5.56
2023-02-13T16:38:03.108Z,5.54
2023-02-13T16:40:33.840Z,5.63
2023-02-13T16:43:38.115Z,5.60
2023-02-13T16:46:17.814Z,5.74
2023-02-13T16:48:56.207Z,5.73
2023-02-13T16:51:54.384Z,5.59
2023-02-13T16:54:26.878Z,5.52
2023-02-13T16:57:03.478Z,5.53
2023-02-13T16:59:39.994Z,5.46
2023-02-13T17:02:25.498Z,5.46
2023-02-13T17:04:53.730Z,5.48
2023-02-13T17:07:26.678Z,5.34
2023-02-13T17:10:17.623Z,5.27
2023-02-13T17:12:44.832Z,5.28
2023-02-13T17:15:13.299Z,5.31
2023-02-13T17:17:40.343Z,5.21
2023-02-13T17:20:07.548Z,5.24
2023-02-13T17:22:40.670Z,5.28
2023-02-13T17:25:11.958Z,5.23
2023-02-13T17:27:38.444Z,5.23
2023-02-13T17:30:05.410Z,5.32
2023-02-13T17:32:31.940Z,5.32
2023-02-13T17:34:58.327Z,5.23
2023-02-13T17:37:27.518Z,5.25
2023-02-13T17:39:54.750Z,5.30
2023-02-13T17:42:27.355Z,5.41
2023-02-13T17:44:56.076Z,5.51
2023-02-13T17:47:23.531Z,5.46
2023-02-13T17:49:50.501Z,5.41
2023-02-13T17:52:22.206Z,5.27
2023-02-13T17:54:49.062Z,5.23
2023-02-13T17:57:17.082Z,5.23
2023-02-13T17:59:43.503Z,5.27
2023-02-13T18:02:15.951Z,5.26
2023-02-13T18:04:42.551Z,5.25
2023-02-13T18:07:11.051Z,5.18
2023-02-13T18:09:37.530Z,5.12
2023-02-13T18:12:05.929Z,5.13
2023-02-13T18:14:33.973Z,5.20
2023-02-13T18:17:00.599Z,5.30
2023-02-13T18:19:27.489Z,5.35
2023-02-13T18:21:53.871Z,5.30
2023-02-13T18:24:20.282Z,5.35
2023-02-13T18:26:46.682Z,5.37
2023-02-13T18:29:13.141Z,5.38
2023-02-13T18:31:39.684Z,5.34
2023-02-13T18:34:06.066Z,5.24
2023-02-13T18:36:32.446Z,5.21
2023-02-13T18:38:58.784Z,5.24
2023-02-13T18:41:25.732Z,5.20
2023-02-13T18:43:52.070Z,5.18
2023-02-13T18:46:18.638Z,5.19
2023-02-13T18:48:44.984Z,5.19
2023-02-13T18:51:11.530Z,5.14
2023-02-13T18:53:37.919Z,5.20
2023-02-13T18:56:06.541Z,5.21
2023-02-13T18:58:33.462Z,5.17
2023-02-13T19:01:08.350Z,5.08
2023-02-13T19:03:36.357Z,5.16
2023-02-13T19:06:11.174Z,5.20
2023-02-13T19:08:37.780Z,5.16
2023-02-13T19:11:10.212Z,5.08
2023-02-13T19:13:36.862Z,5.14
2023-02-13T19:16:18.121Z,5.15
2023-02-13T19:18:47.657Z,5.09
2023-02-13T19:21:15.569Z,5.12
2023-02-13T19:23:42.095Z,5.15
2023-02-13T19:26:11.422Z,5.17
2023-02-13T19:28:38.221Z,5.10
2023-02-13T19:31:25.633Z,5.02
2023-02-13T19:33:52.347Z,5.01
2023-02-13T19:36:22.012Z,4.99
2023-02-13T19:38:53.936Z,4.98
2023-02-13T19:41:20.366Z,5.03
2023-02-13T19:43:50.832Z,5.08
2023-02-13T19:46:31.295Z,4.99
2023-02-13T19:48:58.305Z,5.06
2023-02-13T19:51:30.040Z,5.10
2023-02-13T19:54:01.383Z,5.17
2023-02-13T19:56:28.890Z,5.10
2023-02-13T19:58:55.281Z,5.07
2023-02-13T20:01:23.471Z,5.14
2023-02-13T20:03:50.650Z,5.06
2023-02-13T20:06:20.781Z,5.00
2023-02-13T20:08:47.662Z,5.01
2023-02-13T20:11:16.715Z,5.10
2023-02-13T20:13:43.123Z,5.16
2023-02-13T20:16:12.183Z,5.16
2023-02-13T20:18:38.889Z,5.15
2023-02-13T20:21:13.982Z,5.18
2023-02-13T20:23:41.706Z,5.18
2023-02-13T20:26:11.421Z,5.09
2023-02-13T20:28:38.198Z,5.04
2023-02-13T20:31:12.432Z,5.04
2023-02-13T20:33:40.114Z,5.03
2023-02-13T20:36:14.884Z,4.99
2023-02-13T20:38:41.624Z,5.07
2023-02-13T20:41:23.104Z,5.06
2023-02-13T20:43:50.229Z,5.02
2023-02-13T20:46:17.191Z,5.05
2023-02-13T20:48:46.255Z,5.06
2023-02-13T20:51:14.436Z,5.05
2023-02-13T20:53:42.094Z,5.04
2023-02-13T20:56:14.869Z,5.10
2023-02-13T20:58:42.490Z,5.10
2023-02-13T21:01:29.972Z,5.15
2023-02-13T21:03:56.785Z,5.10
2023-02-13T21:06:26.719Z,5.09
2023-02-13T21:08:53.412Z,5.01
2023-02-13T21:11:20.904Z,4.99
2023-02-13T21:13:47.546Z,5.05
2023-02-13T21:16:17.089Z,5.06
2023-02-13T21:18:44.232Z,4.93
2023-02-13T21:21:11.351Z,4.96
2023-02-13T21:23:37.876Z,5.01
2023-02-13T21:26:16.736Z,4.99
2023-02-13T21:28:46.024Z,4.97
2023-02-13T21:31:15.743Z,4.95
2023-02-13T21:33:42.337Z,4.97
2023-02-13T21:36:10.853Z,4.97
2023-02-13T21:38:38.413Z,5.02
2023-02-13T21:41:15.919Z,4.99
2023-02-13T21:43:46.500Z,5.01
2023-02-13T21:46:15.438Z,5.01
2023-02-13T21:48:42.722Z,5.00
2023-02-13T21:51:19.535Z,5.01
2023-02-13T21:53:49.382Z,5.04
2023-02-13T21:56:19.107Z,5.00
2023-02-13T21:58:46.360Z,5.00
2023-02-13T22:01:25.573Z,5.06
2023-02-13T22:03:56.081Z,5.07
2023-02-13T22:06:23.915Z,5.12
2023-02-13T22:08:55.719Z,5.14
2023-02-13T22:11:22.099Z,5.16
2023-02-13T22:13:48.441Z,5.19
2023-02-13T22:16:15.467Z,5.18
2023-02-13T22:18:43.545Z,5.03
2023-02-13T22:21:15.640Z,4.98
2023-02-13T22:23:43.391Z,5.02
2023-02-13T22:26:16.724Z,4.97
2023-02-13T22:28:43.407Z,4.96
2023-02-13T22:31:11.384Z,5.01
2023-02-13T22:33:37.891Z,5.01
2023-02-13T22:36:04.773Z,4.91
2023-02-13T22:38:36.243Z,4.81
2023-02-13T22:41:11.537Z,4.84
2023-02-13T22:43:39.022Z,4.87
2023-02-13T22:46:20.269Z,4.87
2023-02-13T22:48:47.427Z,4.87
2023-02-13T22:51:16.966Z,4.88
2023-02-13T22:53:44.398Z,4.92
2023-02-13T22:56:11.882Z,4.93
2023-02-13T22:58:38.844Z,4.97
2023-02-13T23:01:13.535Z,4.98
2023-02-13T23:03:40.396Z,5.05
2023-02-13T23:06:07.905Z,5.03
2023-02-13T23:08:34.922Z,5.01
2023-02-13T23:11:25.254Z,5.03
2023-02-13T23:13:51.662Z,4.98
2023-02-13T23:16:18.279Z,4.91
2023-02-13T23:18:45.008Z,4.91
2023-02-13T23:21:11.385Z,4.93
2023-02-13T23:23:41.154Z,4.95
2023-02-13T23:26:08.546Z,5.02
2023-02-13T23:28:35.781Z,5.05
2023-02-13T23:31:03.953Z,5.01
2023-02-13T23:33:30.821Z,5.10
2023-02-13T23:35:57.248Z,5.06
2023-02-13T23:38:24.159Z,4.93
2023-02-13T23:40:50.541Z,4.89
2023-02-13T23:43:16.937Z,4.88
2023-02-13T23:45:43.332Z,4.86
2023-02-13T23:48:12.745Z,4.86
2023-02-13T23:50:40.060Z,4.89
2023-02-13T23:53:06.423Z,4.95
2023-02-13T23:55:32.808Z,4.97
2023-02-13T23:57:59.162Z,5.02
